sensor_id;sensor_type;location;lat;lon;timestamp;pressure;altitude;pressure_sealevel;temperature;humidity
7441;BME280;29616;51.950;8.572;2023-05-09T00:00:40;100346.34;;;14.79;100.00
7441;BME280;29616;51.950;8.572;2023-05-09T00:03:10;100346.50;;;14.77;100.00
7441;BME280;29616;51.950;8.572;2023-05-09T00:05:42;100344.97;;;14.75;100.00
7441;BME280;29616;51.950;8.572;2023-05-09T00:08:13;100335.69;;;14.68;100.00
7441;BME280;29616;51.950;8.572;2023-05-09T00:10:43;100330.88;;;14.70;100.00
7441;BME280;29616;51.950;8.572;2023-05-09T00:13:13;100338.47;;;14.68;100.00
7441;BME280;29616;51.950;8.572;2023-05-09T00:15:42;100323.34;;;14.64;100.00
7441;BME280;29616;51.950;8.572;2023-05-09T00:18:12;100344.97;;;14.75;100.00
7441;BME280;29616;51.950;8.572;2023-05-09T00:20:42;100342.72;;;14.86;100.00
7441;BME280;29616;51.950;8.572;2023-05-09T00:23:11;100339.47;;;14.83;100.00
7441;BME280;29616;51.950;8.572;2023-05-09T00:25:40;100336.03;;;14.73;100.00
7441;BME280;29616;51.950;8.572;2023-05-09T00:28:08;100289.31;;;14.32;100.00
7441;BME280;29616;51.950;8.572;2023-05-09T00:30:37;100327.13;;;14.46;100.00
7441;BME280;29616;51.950;8.572;2023-05-09T00:33:08;100326.09;;;14.47;100.00
7441;BME280;29616;51.950;8.572;2023-05-09T00:35:37;100333.16;;;14.42;100.00
7441;BME280;29616;51.950;8.572;2023-05-09T00:38:08;100322.97;;;14.26;100.00
7441;BME280;29616;51.950;8.572;2023-05-09T00:40:36;100309.56;;;14.15;100.00
7441;BME280;29616;51.950;8.572;2023-05-09T00:43:06;100316.28;;;14.13;100.00
7441;BME280;29616;51.950;8.572;2023-05-09T00:45:34;100311.97;;;14.02;100.00
7441;BME280;29616;51.950;8.572;2023-05-09T00:48:04;100291.63;;;13.79;100.00
7441;BME280;29616;51.950;8.572;2023-05-09T00:50:35;100302.63;;;13.79;100.00
7441;BME280;29616;51.950;8.572;2023-05-09T00:53:04;100302.09;;;13.67;100.00
7441;BME280;29616;51.950;8.572;2023-05-09T00:55:37;100300.88;;;13.62;100.00
7441;BME280;29616;51.950;8.572;2023-05-09T00:58:05;100295.03;;;13.57;100.00
7441;BME280;29616;51.950;8.572;2023-05-09T01:00:35;100291.09;;;13.59;100.00
7441;BME280;29616;51.950;8.572;2023-05-09T01:03:05;100283.00;;;13.58;100.00
7441;BME280;29616;51.950;8.572;2023-05-09T01:05:43;100275.13;;;13.63;100.00
7441;BME280;29616;51.950;8.572;2023-05-09T01:08:28;100279.28;;;13.67;100.00
7441;BME280;29616;51.950;8.572;2023-05-09T01:11:09;100274.28;;;13.54;100.00
7441;BME280;29616;51.950;8.572;2023-05-09T01:13:51;100273.22;;;13.55;100.00
7441;BME280;29616;51.950;8.572;2023-05-09T01:16:34;100258.97;;;13.44;100.00
7441;BME280;29616;51.950;8.572;2023-05-09T01:19:25;100252.75;;;13.33;100.00
7441;BME280;29616;51.950;8.572;2023-05-09T01:21:55;100253.28;;;13.37;100.00
7441;BME280;29616;51.950;8.572;2023-05-09T01:24:50;100253.75;;;13.24;100.00
7441;BME280;29616;51.950;8.572;2023-05-09T01:27:39;100240.66;;;13.10;100.00
7441;BME280;29616;51.950;8.572;2023-05-09T01:30:15;100244.75;;;13.06;100.00
7441;BME280;29616;51.950;8.572;2023-05-09T01:32:48;100246.16;;;13.10;100.00
7441;BME280;29616;51.950;8.572;2023-05-09T01:35:23;100229.69;;;13.10;100.00
7441;BME280;29616;51.950;8.572;2023-05-09T01:37:55;100236.03;;;13.11;100.00
7441;BME280;29616;51.950;8.572;2023-05-09T01:40:28;100234.53;;;13.16;100.00
7441;BME280;29616;51.950;8.572;2023-05-09T01:43:02;100224.88;;;13.12;100.00
7441;BME280;29616;51.950;8.572;2023-05-09T01:45:33;100230.56;;;13.11;100.00
7441;BME280;29616;51.950;8.572;2023-05-09T01:48:07;100232.03;;;13.05;100.00
7441;BME280;29616;51.950;8.572;2023-05-09T01:50:37;100226.72;;;13.04;100.00
7441;BME280;29616;51.950;8.572;2023-05-09T01:53:10;100228.59;;;13.03;100.00
7441;BME280;29616;51.950;8.572;2023-05-09T01:55:40;100231.69;;;13.00;100.00
7441;BME280;29616;51.950;8.572;2023-05-09T01:58:12;100228.03;;;12.92;100.00
7441;BME280;29616;51.950;8.572;2023-05-09T02:00:43;100224.59;;;12.90;100.00
7441;BME280;29616;51.950;8.572;2023-05-09T02:03:13;100225.09;;;12.85;100.00
7441;BME280;29616;51.950;8.572;2023-05-09T02:05:43;100225.75;;;12.79;100.00
7441;BME280;29616;51.950;8.572;2023-05-09T02:08:14;100220.28;;;12.79;100.00
7441;BME280;29616;51.950;8.572;2023-05-09T02:10:43;100212.19;;;12.77;100.00
7441;BME280;29616;51.950;8.572;2023-05-09T02:13:14;100212.41;;;12.84;100.00
7441;BME280;29616;51.950;8.572;2023-05-09T02:15:46;100208.66;;;12.85;100.00
7441;BME280;29616;51.950;8.572;2023-05-09T02:18:15;100203.53;;;12.90;100.00
7441;BME280;29616;51.950;8.572;2023-05-09T02:20:47;100198.88;;;12.83;100.00
7441;BME280;29616;51.950;8.572;2023-05-09T02:23:17;100201.66;;;12.91;100.00
7441;BME280;29616;51.950;8.572;2023-05-09T02:25:47;100210.06;;;12.97;100.00
7441;BME280;29616;51.950;8.572;2023-05-09T02:28:17;100194.09;;;12.93;100.00
7441;BME280;29616;51.950;8.572;2023-05-09T02:30:48;100201.66;;;12.91;100.00
7441;BME280;29616;51.950;8.572;2023-05-09T02:33:18;100200.03;;;12.80;100.00
7441;BME280;29616;51.950;8.572;2023-05-09T02:35:46;100187.47;;;12.69;100.00
7441;BME280;29616;51.950;8.572;2023-05-09T02:38:18;100196.09;;;12.74;100.00
7441;BME280;29616;51.950;8.572;2023-05-09T02:40:49;100198.34;;;12.79;100.00
7441;BME280;29616;51.950;8.572;2023-05-09T02:43:19;100195.88;;;12.68;100.00
7441;BME280;29616;51.950;8.572;2023-05-09T02:45:49;100206.19;;;12.74;100.00
7441;BME280;29616;51.950;8.572;2023-05-09T02:48:17;100199.81;;;12.65;100.00
7441;BME280;29616;51.950;8.572;2023-05-09T02:50:46;100204.22;;;12.58;100.00
7441;BME280;29616;51.950;8.572;2023-05-09T02:53:16;100193.09;;;12.60;100.00
7441;BME280;29616;51.950;8.572;2023-05-09T02:55:45;100196.00;;;12.58;100.00
7441;BME280;29616;51.950;8.572;2023-05-09T02:58:15;100194.50;;;12.64;100.00
7441;BME280;29616;51.950;8.572;2023-05-09T03:00:43;100192.13;;;12.69;100.00
7441;BME280;29616;51.950;8.572;2023-05-09T03:03:16;100197.94;;;12.66;100.00
7441;BME280;29616;51.950;8.572;2023-05-09T03:05:47;100182.81;;;12.62;100.00
7441;BME280;29616;51.950;8.572;2023-05-09T03:08:15;100175.94;;;12.58;100.00
7441;BME280;29616;51.950;8.572;2023-05-09T03:10:44;100175.44;;;12.62;100.00
7441;BME280;29616;51.950;8.572;2023-05-09T03:13:15;100182.34;;;12.66;100.00
7441;BME280;29616;51.950;8.572;2023-05-09T03:15:45;100180.50;;;12.83;100.00
7441;BME280;29616;51.950;8.572;2023-05-09T03:18:15;100177.81;;;12.99;100.00
7441;BME280;29616;51.950;8.572;2023-05-09T03:20:46;100171.28;;;12.92;100.00
7441;BME280;29616;51.950;8.572;2023-05-09T03:23:15;100174.88;;;12.85;100.00
7441;BME280;29616;51.950;8.572;2023-05-09T03:25:43;100174.66;;;12.78;100.00
7441;BME280;29616;51.950;8.572;2023-05-09T03:28:13;100176.94;;;12.83;100.00
7441;BME280;29616;51.950;8.572;2023-05-09T03:30:43;100169.88;;;12.80;100.00
7441;BME280;29616;51.950;8.572;2023-05-09T03:33:16;100172.63;;;12.88;100.00
7441;BME280;29616;51.950;8.572;2023-05-09T03:35:46;100164.97;;;13.00;100.00
7441;BME280;29616;51.950;8.572;2023-05-09T03:38:17;100157.47;;;13.10;100.00
7441;BME280;29616;51.950;8.572;2023-05-09T03:40:47;100163.69;;;13.12;100.00
7441;BME280;29616;51.950;8.572;2023-05-09T03:43:17;100163.50;;;13.13;100.00
7441;BME280;29616;51.950;8.572;2023-05-09T03:45:45;100144.28;;;13.13;100.00
7441;BME280;29616;51.950;8.572;2023-05-09T03:48:15;100154.63;;;13.27;100.00
7441;BME280;29616;51.950;8.572;2023-05-09T03:50:49;100167.50;;;13.43;100.00
7441;BME280;29616;51.950;8.572;2023-05-09T03:53:20;100156.34;;;13.45;100.00
7441;BME280;29616;51.950;8.572;2023-05-09T03:55:50;100151.91;;;13.44;100.00
7441;BME280;29616;51.950;8.572;2023-05-09T03:58:20;100150.53;;;13.48;100.00
7441;BME280;29616;51.950;8.572;2023-05-09T04:00:50;100160.50;;;13.57;100.00
7441;BME280;29616;51.950;8.572;2023-05-09T04:03:23;100158.44;;;13.59;100.00
7441;BME280;29616;51.950;8.572;2023-05-09T04:05:54;100152.94;;;13.59;100.00
7441;BME280;29616;51.950;8.572;2023-05-09T04:08:29;100149.31;;;13.50;100.00
7441;BME280;29616;51.950;8.572;2023-05-09T04:11:00;100163.06;;;13.58;100.00
7441;BME280;29616;51.950;8.572;2023-05-09T04:13:30;100155.34;;;13.70;100.00
7441;BME280;29616;51.950;8.572;2023-05-09T04:16:05;100156.72;;;13.74;100.00
7441;BME280;29616;51.950;8.572;2023-05-09T04:18:35;100148.13;;;13.77;100.00
7441;BME280;29616;51.950;8.572;2023-05-09T04:21:08;100153.81;;;13.91;100.00
7441;BME280;29616;51.950;8.572;2023-05-09T04:23:37;100149.31;;;13.98;100.00
7441;BME280;29616;51.950;8.572;2023-05-09T04:26:07;100145.53;;;14.16;100.00
7441;BME280;29616;51.950;8.572;2023-05-09T04:28:36;100150.66;;;14.35;100.00
7441;BME280;29616;51.950;8.572;2023-05-09T04:31:05;100142.00;;;14.54;100.00
7441;BME280;29616;51.950;8.572;2023-05-09T04:33:36;100142.44;;;14.74;100.00
7441;BME280;29616;51.950;8.572;2023-05-09T04:36:07;100139.78;;;14.88;100.00
7441;BME280;29616;51.950;8.572;2023-05-09T04:38:35;100133.06;;;14.91;100.00
7441;BME280;29616;51.950;8.572;2023-05-09T04:41:11;100130.94;;;15.01;100.00
7441;BME280;29616;51.950;8.572;2023-05-09T04:43:41;100118.50;;;15.13;100.00
7441;BME280;29616;51.950;8.572;2023-05-09T04:46:12;100130.28;;;15.30;100.00
7441;BME280;29616;51.950;8.572;2023-05-09T04:48:43;100131.03;;;15.46;100.00
7441;BME280;29616;51.950;8.572;2023-05-09T04:51:12;100129.88;;;15.63;100.00
7441;BME280;29616;51.950;8.572;2023-05-09T04:53:44;100133.34;;;15.80;100.00
7441;BME280;29616;51.950;8.572;2023-05-09T04:56:15;100125.38;;;15.85;100.00
7441;BME280;29616;51.950;8.572;2023-05-09T04:58:45;100138.34;;;15.99;100.00
7441;BME280;29616;51.950;8.572;2023-05-09T05:01:14;100131.19;;;16.05;100.00
7441;BME280;29616;51.950;8.572;2023-05-09T05:03:45;100124.38;;;16.01;100.00
7441;BME280;29616;51.950;8.572;2023-05-09T05:06:14;100124.88;;;16.19;100.00
7441;BME280;29616;51.950;8.572;2023-05-09T05:08:44;100118.03;;;16.29;100.00
7441;BME280;29616;51.950;8.572;2023-05-09T05:11:13;100121.44;;;16.17;100.00
7441;BME280;29616;51.950;8.572;2023-05-09T05:13:45;100126.50;;;16.28;100.00
7441;BME280;29616;51.950;8.572;2023-05-09T05:16:15;100122.50;;;16.45;100.00
7441;BME280;29616;51.950;8.572;2023-05-09T05:18:47;100127.63;;;16.48;100.00
7441;BME280;29616;51.950;8.572;2023-05-09T05:21:18;100120.16;;;16.57;100.00
7441;BME280;29616;51.950;8.572;2023-05-09T05:23:47;100122.44;;;16.53;100.00
7441;BME280;29616;51.950;8.572;2023-05-09T05:26:18;100126.22;;;16.52;100.00
7441;BME280;29616;51.950;8.572;2023-05-09T05:28:48;100120.03;;;16.50;100.00
7441;BME280;29616;51.950;8.572;2023-05-09T05:31:24;100121.88;;;16.72;100.00
7441;BME280;29616;51.950;8.572;2023-05-09T05:33:54;100118.19;;;17.01;100.00
7441;BME280;29616;51.950;8.572;2023-05-09T05:36:26;100110.41;;;17.26;100.00
7441;BME280;29616;51.950;8.572;2023-05-09T05:38:56;100104.69;;;17.63;100.00
7441;BME280;29616;51.950;8.572;2023-05-09T05:41:26;100111.50;;;17.67;100.00
7441;BME280;29616;51.950;8.572;2023-05-09T05:43:54;100096.06;;;18.00;100.00
7441;BME280;29616;51.950;8.572;2023-05-09T05:46:24;100084.22;;;18.41;100.00
7441;BME280;29616;51.950;8.572;2023-05-09T05:48:55;100091.72;;;18.81;100.00
7441;BME280;29616;51.950;8.572;2023-05-09T05:51:24;100084.53;;;18.52;100.00
7441;BME280;29616;51.950;8.572;2023-05-09T05:53:54;100092.94;;;18.72;100.00
7441;BME280;29616;51.950;8.572;2023-05-09T05:56:24;100088.78;;;18.89;100.00
7441;BME280;29616;51.950;8.572;2023-05-09T05:58:56;100091.00;;;19.13;100.00
7441;BME280;29616;51.950;8.572;2023-05-09T06:01:25;100076.94;;;19.15;100.00
7441;BME280;29616;51.950;8.572;2023-05-09T06:03:58;100077.25;;;18.92;100.00
7441;BME280;29616;51.950;8.572;2023-05-09T06:06:30;100083.28;;;19.09;100.00
7441;BME280;29616;51.950;8.572;2023-05-09T06:09:00;100078.22;;;19.25;100.00
7441;BME280;29616;51.950;8.572;2023-05-09T06:11:30;100075.78;;;19.96;100.00
7441;BME280;29616;51.950;8.572;2023-05-09T06:13:59;100070.00;;;20.17;100.00
7441;BME280;29616;51.950;8.572;2023-05-09T06:16:28;100071.06;;;20.36;100.00
7441;BME280;29616;51.950;8.572;2023-05-09T06:19:00;100062.03;;;20.60;100.00
7441;BME280;29616;51.950;8.572;2023-05-09T06:21:30;100067.03;;;20.38;100.00
7441;BME280;29616;51.950;8.572;2023-05-09T06:24:01;100071.66;;;20.58;100.00
7441;BME280;29616;51.950;8.572;2023-05-09T06:26:39;100068.00;;;20.70;100.00
7441;BME280;29616;51.950;8.572;2023-05-09T06:29:09;100040.19;;;20.77;100.00
7441;BME280;29616;51.950;8.572;2023-05-09T06:31:39;100058.31;;;20.86;100.00
7441;BME280;29616;51.950;8.572;2023-05-09T06:34:10;100063.81;;;20.22;100.00
7441;BME280;29616;51.950;8.572;2023-05-09T06:36:41;100049.72;;;20.36;100.00
7441;BME280;29616;51.950;8.572;2023-05-09T06:39:11;100069.28;;;20.68;100.00
7441;BME280;29616;51.950;8.572;2023-05-09T06:41:40;100061.59;;;20.70;100.00
7441;BME280;29616;51.950;8.572;2023-05-09T06:44:10;100045.97;;;21.51;100.00
7441;BME280;29616;51.950;8.572;2023-05-09T06:46:40;100058.94;;;22.19;100.00
7441;BME280;29616;51.950;8.572;2023-05-09T06:49:10;100040.25;;;22.02;100.00
7441;BME280;29616;51.950;8.572;2023-05-09T06:51:39;100038.44;;;21.83;100.00
7441;BME280;29616;51.950;8.572;2023-05-09T06:54:09;100040.16;;;21.90;100.00
7441;BME280;29616;51.950;8.572;2023-05-09T06:56:38;100041.97;;;22.03;100.00
7441;BME280;29616;51.950;8.572;2023-05-09T06:59:08;100038.75;;;22.24;100.00
7441;BME280;29616;51.950;8.572;2023-05-09T07:01:40;100031.28;;;22.43;100.00
7441;BME280;29616;51.950;8.572;2023-05-09T07:04:12;100030.09;;;22.50;100.00
7441;BME280;29616;51.950;8.572;2023-05-09T07:06:41;100020.94;;;22.86;100.00
7441;BME280;29616;51.950;8.572;2023-05-09T07:09:10;100011.72;;;22.85;100.00
7441;BME280;29616;51.950;8.572;2023-05-09T07:11:41;100011.06;;;23.02;100.00
7441;BME280;29616;51.950;8.572;2023-05-09T07:14:11;100010.31;;;22.76;100.00
7441;BME280;29616;51.950;8.572;2023-05-09T07:16:41;100007.56;;;23.06;100.00
7441;BME280;29616;51.950;8.572;2023-05-09T07:19:12;100006.41;;;22.96;100.00
7441;BME280;29616;51.950;8.572;2023-05-09T07:21:41;99997.72;;;22.74;100.00
7441;BME280;29616;51.950;8.572;2023-05-09T07:24:10;100002.16;;;22.39;100.00
7441;BME280;29616;51.950;8.572;2023-05-09T07:26:39;100009.34;;;22.10;100.00
7441;BME280;29616;51.950;8.572;2023-05-09T07:29:08;99997.16;;;21.86;100.00
7441;BME280;29616;51.950;8.572;2023-05-09T07:31:38;99977.09;;;21.77;100.00
7441;BME280;29616;51.950;8.572;2023-05-09T07:34:07;99995.09;;;21.75;100.00
7441;BME280;29616;51.950;8.572;2023-05-09T07:36:37;99977.56;;;22.90;100.00
7441;BME280;29616;51.950;8.572;2023-05-09T07:39:06;99977.25;;;23.92;100.00
7441;BME280;29616;51.950;8.572;2023-05-09T07:41:36;99976.00;;;23.65;100.00
7441;BME280;29616;51.950;8.572;2023-05-09T07:44:05;99973.97;;;23.31;100.00
7441;BME280;29616;51.950;8.572;2023-05-09T07:46:36;99965.94;;;22.63;100.00
7441;BME280;29616;51.950;8.572;2023-05-09T07:49:08;99945.94;;;21.94;100.00
7441;BME280;29616;51.950;8.572;2023-05-09T07:51:39;99962.69;;;21.62;100.00
7441;BME280;29616;51.950;8.572;2023-05-09T07:54:07;99954.88;;;21.28;100.00
7441;BME280;29616;51.950;8.572;2023-05-09T07:56:38;99959.97;;;21.31;100.00
7441;BME280;29616;51.950;8.572;2023-05-09T07:59:06;99953.84;;;20.85;100.00
7441;BME280;29616;51.950;8.572;2023-05-09T08:01:41;99960.13;;;21.05;100.00
7441;BME280;29616;51.950;8.572;2023-05-09T08:04:12;99961.19;;;20.73;100.00
7441;BME280;29616;51.950;8.572;2023-05-09T08:06:43;99952.19;;;20.77;100.00
7441;BME280;29616;51.950;8.572;2023-05-09T08:09:14;99951.25;;;20.90;100.00
7441;BME280;29616;51.950;8.572;2023-05-09T08:11:44;99949.94;;;20.92;100.00
7441;BME280;29616;51.950;8.572;2023-05-09T08:14:13;99943.09;;;20.95;100.00
7441;BME280;29616;51.950;8.572;2023-05-09T08:16:41;99946.63;;;21.40;100.00
7441;BME280;29616;51.950;8.572;2023-05-09T08:19:11;99946.19;;;21.67;100.00
7441;BME280;29616;51.950;8.572;2023-05-09T08:21:39;99950.09;;;21.85;100.00
7441;BME280;29616;51.950;8.572;2023-05-09T08:24:10;99937.84;;;21.67;100.00
7441;BME280;29616;51.950;8.572;2023-05-09T08:26:39;99925.84;;;21.92;100.00
7441;BME280;29616;51.950;8.572;2023-05-09T08:29:09;99928.16;;;22.31;100.00
7441;BME280;29616;51.950;8.572;2023-05-09T08:31:38;99925.00;;;22.93;100.00
7441;BME280;29616;51.950;8.572;2023-05-09T08:34:07;99921.91;;;22.83;100.00
7441;BME280;29616;51.950;8.572;2023-05-09T08:36:36;99926.00;;;22.69;100.00
7441;BME280;29616;51.950;8.572;2023-05-09T08:39:06;99927.53;;;22.65;100.00
7441;BME280;29616;51.950;8.572;2023-05-09T08:41:39;99916.34;;;22.17;100.00
7441;BME280;29616;51.950;8.572;2023-05-09T08:44:09;99916.66;;;22.27;100.00
7441;BME280;29616;51.950;8.572;2023-05-09T08:46:42;99906.44;;;22.40;100.00
7441;BME280;29616;51.950;8.572;2023-05-09T08:49:13;99916.09;;;22.55;100.00
7441;BME280;29616;51.950;8.572;2023-05-09T08:51:44;99909.28;;;22.33;100.00
7441;BME280;29616;51.950;8.572;2023-05-09T08:54:14;99906.84;;;21.89;100.00
7441;BME280;29616;51.950;8.572;2023-05-09T08:56:44;99908.41;;;21.60;100.00
7441;BME280;29616;51.950;8.572;2023-05-09T08:59:14;99913.97;;;21.35;100.00
7441;BME280;29616;51.950;8.572;2023-05-09T09:01:44;99902.44;;;21.56;100.00
7441;BME280;29616;51.950;8.572;2023-05-09T09:04:13;99904.72;;;21.41;100.00
7441;BME280;29616;51.950;8.572;2023-05-09T09:06:43;99888.50;;;21.38;100.00
7441;BME280;29616;51.950;8.572;2023-05-09T09:09:14;99891.31;;;21.56;100.00
7441;BME280;29616;51.950;8.572;2023-05-09T09:11:46;99886.78;;;21.37;100.00
7441;BME280;29616;51.950;8.572;2023-05-09T09:14:22;99887.47;;;21.33;100.00
7441;BME280;29616;51.950;8.572;2023-05-09T09:16:53;99886.06;;;21.66;100.00
7441;BME280;29616;51.950;8.572;2023-05-09T09:19:29;99877.09;;;21.46;100.00
7441;BME280;29616;51.950;8.572;2023-05-09T09:22:03;99878.84;;;21.16;100.00
7441;BME280;29616;51.950;8.572;2023-05-09T09:24:33;99884.41;;;21.16;100.00
7441;BME280;29616;51.950;8.572;2023-05-09T09:27:05;99872.50;;;21.09;100.00
7441;BME280;29616;51.950;8.572;2023-05-09T09:29:35;99867.69;;;21.65;100.00
7441;BME280;29616;51.950;8.572;2023-05-09T09:32:05;99861.47;;;22.06;100.00
7441;BME280;29616;51.950;8.572;2023-05-09T09:34:35;99863.22;;;22.37;100.00
7441;BME280;29616;51.950;8.572;2023-05-09T09:37:05;99854.19;;;23.24;100.00
7441;BME280;29616;51.950;8.572;2023-05-09T09:39:36;99847.50;;;24.18;100.00
7441;BME280;29616;51.950;8.572;2023-05-09T09:42:12;99846.47;;;24.64;100.00
7441;BME280;29616;51.950;8.572;2023-05-09T09:44:42;99857.53;;;24.31;100.00
7441;BME280;29616;51.950;8.572;2023-05-09T09:47:13;99852.84;;;23.85;100.00
7441;BME280;29616;51.950;8.572;2023-05-09T09:49:45;99856.16;;;23.82;100.00
7441;BME280;29616;51.950;8.572;2023-05-09T09:52:22;99830.63;;;24.01;100.00
7441;BME280;29616;51.950;8.572;2023-05-09T09:54:54;99840.66;;;24.26;100.00
7441;BME280;29616;51.950;8.572;2023-05-09T09:57:34;99823.22;;;24.07;100.00
7441;BME280;29616;51.950;8.572;2023-05-09T10:00:05;99833.91;;;24.22;100.00
7441;BME280;29616;51.950;8.572;2023-05-09T10:02:35;99825.78;;;24.08;100.00
7441;BME280;29616;51.950;8.572;2023-05-09T10:05:19;99822.41;;;23.83;100.00
7441;BME280;29616;51.950;8.572;2023-05-09T10:07:53;99813.50;;;23.98;100.00
7441;BME280;29616;51.950;8.572;2023-05-09T10:10:25;99810.22;;;24.24;100.00
7441;BME280;29616;51.950;8.572;2023-05-09T10:12:58;99805.31;;;24.31;100.00
7441;BME280;29616;51.950;8.572;2023-05-09T10:15:35;99807.28;;;24.59;100.00
7441;BME280;29616;51.950;8.572;2023-05-09T10:18:26;99808.16;;;24.48;100.00
7441;BME280;29616;51.950;8.572;2023-05-09T10:20:58;99802.69;;;25.14;100.00
7441;BME280;29616;51.950;8.572;2023-05-09T10:23:33;99799.75;;;24.76;100.00
7441;BME280;29616;51.950;8.572;2023-05-09T10:26:17;99791.72;;;24.35;100.00
7441;BME280;29616;51.950;8.572;2023-05-09T10:28:57;99783.84;;;24.32;100.00
7441;BME280;29616;51.950;8.572;2023-05-09T10:31:28;99793.97;;;24.09;100.00
7441;BME280;29616;51.950;8.572;2023-05-09T10:34:04;99784.38;;;24.17;100.00
7441;BME280;29616;51.950;8.572;2023-05-09T10:36:36;99785.78;;;24.31;100.00
7441;BME280;29616;51.950;8.572;2023-05-09T10:39:06;99774.38;;;24.49;100.00
7441;BME280;29616;51.950;8.572;2023-05-09T10:41:35;99776.63;;;24.36;100.00
7441;BME280;29616;51.950;8.572;2023-05-09T10:44:06;99773.41;;;24.27;100.00
7441;BME280;29616;51.950;8.572;2023-05-09T10:46:35;99772.56;;;24.27;100.00
7441;BME280;29616;51.950;8.572;2023-05-09T10:49:06;99762.56;;;24.02;100.00
7441;BME280;29616;51.950;8.572;2023-05-09T10:51:35;99740.41;;;23.84;100.00
7441;BME280;29616;51.950;8.572;2023-05-09T10:54:13;99755.53;;;24.00;100.00
7441;BME280;29616;51.950;8.572;2023-05-09T10:56:43;99746.69;;;23.91;100.00
7441;BME280;29616;51.950;8.572;2023-05-09T10:59:33;99754.50;;;24.06;100.00
7441;BME280;29616;51.950;8.572;2023-05-09T11:02:03;99744.69;;;24.03;100.00
7441;BME280;29616;51.950;8.572;2023-05-09T11:04:33;99741.53;;;24.40;100.00
7441;BME280;29616;51.950;8.572;2023-05-09T11:07:20;99730.63;;;24.55;100.00
7441;BME280;29616;51.950;8.572;2023-05-09T11:09:51;99738.31;;;24.31;100.00
7441;BME280;29616;51.950;8.572;2023-05-09T11:12:23;99738.13;;;24.38;100.00
7441;BME280;29616;51.950;8.572;2023-05-09T11:15:04;99723.88;;;24.51;100.00
7441;BME280;29616;51.950;8.572;2023-05-09T11:17:37;99718.78;;;24.64;100.00
7441;BME280;29616;51.950;8.572;2023-05-09T11:20:08;99707.81;;;24.75;100.00
7441;BME280;29616;51.950;8.572;2023-05-09T11:22:41;99699.03;;;24.83;100.00
7441;BME280;29616;51.950;8.572;2023-05-09T11:25:13;99709.66;;;25.19;100.00
7441;BME280;29616;51.950;8.572;2023-05-09T11:27:46;99709.09;;;25.39;100.00
7441;BME280;29616;51.950;8.572;2023-05-09T11:30:18;99697.00;;;25.33;100.00
7441;BME280;29616;51.950;8.572;2023-05-09T11:32:51;99703.25;;;24.85;100.00
7441;BME280;29616;51.950;8.572;2023-05-09T11:35:22;99695.69;;;24.69;100.00
7441;BME280;29616;51.950;8.572;2023-05-09T11:37:59;99675.13;;;24.92;100.00
7441;BME280;29616;51.950;8.572;2023-05-09T11:40:30;99699.53;;;25.35;100.00
7441;BME280;29616;51.950;8.572;2023-05-09T11:43:00;99694.63;;;26.12;100.00
7441;BME280;29616;51.950;8.572;2023-05-09T11:45:32;99689.31;;;26.64;100.00
7441;BME280;29616;51.950;8.572;2023-05-09T11:48:00;99691.41;;;27.15;100.00
7441;BME280;29616;51.950;8.572;2023-05-09T11:50:37;99680.38;;;26.98;100.00
7441;BME280;29616;51.950;8.572;2023-05-09T11:53:09;99668.81;;;26.05;100.00
7441;BME280;29616;51.950;8.572;2023-05-09T11:55:40;99670.34;;;25.69;100.00
7441;BME280;29616;51.950;8.572;2023-05-09T11:58:10;99667.03;;;25.72;100.00
7441;BME280;29616;51.950;8.572;2023-05-09T12:00:44;99667.50;;;26.12;100.00
7441;BME280;29616;51.950;8.572;2023-05-09T12:03:17;99660.91;;;26.23;98.31
7441;BME280;29616;51.950;8.572;2023-05-09T12:05:47;99657.63;;;26.63;99.00
7441;BME280;29616;51.950;8.572;2023-05-09T12:08:17;99665.63;;;27.18;94.61
7441;BME280;29616;51.950;8.572;2023-05-09T12:10:45;99664.13;;;27.52;96.04
7441;BME280;29616;51.950;8.572;2023-05-09T12:13:15;99645.91;;;27.55;90.35
7441;BME280;29616;51.950;8.572;2023-05-09T12:15:46;99652.19;;;27.77;92.77
7441;BME280;29616;51.950;8.572;2023-05-09T12:18:17;99646.22;;;27.58;88.97
7441;BME280;29616;51.950;8.572;2023-05-09T12:20:48;99640.06;;;27.15;90.77
7441;BME280;29616;51.950;8.572;2023-05-09T12:23:18;99635.69;;;27.39;94.45
7441;BME280;29616;51.950;8.572;2023-05-09T12:25:52;99622.97;;;27.11;96.01
7441;BME280;29616;51.950;8.572;2023-05-09T12:28:22;99634.84;;;27.33;90.44
7441;BME280;29616;51.950;8.572;2023-05-09T12:30:54;99625.78;;;27.16;95.54
7441;BME280;29616;51.950;8.572;2023-05-09T12:33:24;99613.00;;;26.57;97.95
7441;BME280;29616;51.950;8.572;2023-05-09T12:36:03;99624.16;;;27.25;92.95
7441;BME280;29616;51.950;8.572;2023-05-09T12:38:32;99606.72;;;27.18;92.71
7441;BME280;29616;51.950;8.572;2023-05-09T12:41:04;99602.31;;;27.32;92.55
7441;BME280;29616;51.950;8.572;2023-05-09T12:43:39;99606.81;;;27.38;94.80
7441;BME280;29616;51.950;8.572;2023-05-09T12:46:10;99603.53;;;27.46;93.61
7441;BME280;29616;51.950;8.572;2023-05-09T12:48:39;99592.38;;;27.77;92.65
7441;BME280;29616;51.950;8.572;2023-05-09T12:51:11;99596.88;;;27.67;88.18
7441;BME280;29616;51.950;8.572;2023-05-09T12:53:41;99594.09;;;27.21;92.56
7441;BME280;29616;51.950;8.572;2023-05-09T12:56:12;99594.81;;;26.96;95.31
7441;BME280;29616;51.950;8.572;2023-05-09T12:58:50;99581.91;;;26.95;92.37
7441;BME280;29616;51.950;8.572;2023-05-09T13:01:21;99586.69;;;26.99;97.41
7441;BME280;29616;51.950;8.572;2023-05-09T13:03:58;99571.84;;;26.57;100.00
7441;BME280;29616;51.950;8.572;2023-05-09T13:06:27;99577.75;;;26.61;98.82
7441;BME280;29616;51.950;8.572;2023-05-09T13:08:58;99578.81;;;26.55;95.73
7441;BME280;29616;51.950;8.572;2023-05-09T13:11:29;99572.88;;;26.14;95.47
7441;BME280;29616;51.950;8.572;2023-05-09T13:14:02;99578.91;;;26.01;97.99
7441;BME280;29616;51.950;8.572;2023-05-09T13:16:33;99562.91;;;25.97;100.00